sensor_id;sensor_type;location;lat;lon;timestamp;pressure;altitude;pressure_sealevel;temperature;humidity
57038;BME280;59942;49.304;8.256;2024-01-16T00:01:13;99867.41;;;-1.98;91.94
57038;BME280;59942;49.304;8.256;2024-01-16T00:03:40;99848.78;;;-1.97;91.32
57038;BME280;59942;49.304;8.256;2024-01-16T00:06:10;99857.25;;;-1.84;90.73
57038;BME280;59942;49.304;8.256;2024-01-16T00:08:39;99854.72;;;-1.89;91.66
57038;BME280;59942;49.304;8.256;2024-01-16T00:11:06;99872.47;;;-1.94;91.61
57038;BME280;59942;49.304;8.256;2024-01-16T00:13:35;99875.03;;;-1.94;92.15
57038;BME280;59942;49.304;8.256;2024-01-16T00:16:04;99872.50;;;-2.07;92.20
57038;BME280;59942;49.304;8.256;2024-01-16T00:18:31;99876.72;;;-2.00;92.00
57038;BME280;59942;49.304;8.256;2024-01-16T00:21:02;99880.97;;;-1.99;92.00
57038;BME280;59942;49.304;8.256;2024-01-16T00:23:29;99878.44;;;-1.90;92.05
57038;BME280;59942;49.304;8.256;2024-01-16T00:26:00;99881.81;;;-1.82;91.87
57038;BME280;59942;49.304;8.256;2024-01-16T00:28:27;99894.53;;;-1.82;92.04
57038;BME280;59942;49.304;8.256;2024-01-16T00:30:53;99872.50;;;-1.81;91.82
57038;BME280;59942;49.304;8.256;2024-01-16T00:33:20;99878.41;;;-1.84;92.19
57038;BME280;59942;49.304;8.256;2024-01-16T00:35:46;99875.03;;;-1.89;92.39
57038;BME280;59942;49.304;8.256;2024-01-16T00:38:15;99878.41;;;-1.87;92.00
57038;BME280;59942;49.304;8.256;2024-01-16T00:40:42;99886.06;;;-1.96;92.24
57038;BME280;59942;49.304;8.256;2024-01-16T00:43:08;99880.97;;;-1.92;92.45
57038;BME280;59942;49.304;8.256;2024-01-16T00:45:35;99887.72;;;-1.94;93.09
57038;BME280;59942;49.304;8.256;2024-01-16T00:48:05;99885.19;;;-2.01;92.99
57038;BME280;59942;49.304;8.256;2024-01-16T00:50:37;99890.25;;;-1.97;93.26
57038;BME280;59942;49.304;8.256;2024-01-16T00:53:03;99891.09;;;-2.02;93.42
57038;BME280;59942;49.304;8.256;2024-01-16T00:55:30;99893.66;;;-2.07;93.30
57038;BME280;59942;49.304;8.256;2024-01-16T00:57:58;99902.09;;;-2.10;93.89
57038;BME280;59942;49.304;8.256;2024-01-16T01:00:25;99909.72;;;-2.17;94.22
57038;BME280;59942;49.304;8.256;2024-01-16T01:02:51;99907.19;;;-2.23;94.76
57038;BME280;59942;49.304;8.256;2024-01-16T01:05:20;99912.25;;;-2.14;94.69
57038;BME280;59942;49.304;8.256;2024-01-16T01:08:00;99906.34;;;-2.12;94.18
57038;BME280;59942;49.304;8.256;2024-01-16T01:10:26;99910.59;;;-2.09;93.97
57038;BME280;59942;49.304;8.256;2024-01-16T01:12:55;99915.69;;;-2.09;94.09
57038;BME280;59942;49.304;8.256;2024-01-16T01:15:22;99924.13;;;-2.08;94.40
57038;BME280;59942;49.304;8.256;2024-01-16T01:17:49;99913.13;;;-2.12;93.85
57038;BME280;59942;49.304;8.256;2024-01-16T01:20:17;99923.28;;;-2.03;94.00
57038;BME280;59942;49.304;8.256;2024-01-16T01:22:45;99927.53;;;-1.96;93.92
57038;BME280;59942;49.304;8.256;2024-01-16T01:25:13;99918.22;;;-1.98;93.95
57038;BME280;59942;49.304;8.256;2024-01-16T01:27:40;99916.50;;;-2.05;94.26
57038;BME280;59942;49.304;8.256;2024-01-16T01:30:10;99922.47;;;-1.86;93.70
57038;BME280;59942;49.304;8.256;2024-01-16T01:32:38;99936.03;;;-1.72;93.01
57038;BME280;59942;49.304;8.256;2024-01-16T01:35:07;99936.88;;;-1.87;92.45
57038;BME280;59942;49.304;8.256;2024-01-16T01:37:36;99934.31;;;-1.87;92.88
57038;BME280;59942;49.304;8.256;2024-01-16T01:40:03;99947.91;;;-1.82;93.09
57038;BME280;59942;49.304;8.256;2024-01-16T01:42:30;99950.47;;;-1.63;92.79
57038;BME280;59942;49.304;8.256;2024-01-16T01:44:59;99951.31;;;-1.69;92.03
57038;BME280;59942;49.304;8.256;2024-01-16T01:47:25;99958.03;;;-1.88;92.80
57038;BME280;59942;49.304;8.256;2024-01-16T01:49:52;99957.19;;;-1.87;92.72
57038;BME280;59942;49.304;8.256;2024-01-16T01:52:24;99958.03;;;-1.91;93.25
57038;BME280;59942;49.304;8.256;2024-01-16T01:54:53;99955.53;;;-1.85;92.99
57038;BME280;59942;49.304;8.256;2024-01-16T01:57:19;99960.56;;;-1.86;93.13
57038;BME280;59942;49.304;8.256;2024-01-16T01:59:48;99961.44;;;-1.92;93.37
57038;BME280;59942;49.304;8.256;2024-01-16T02:02:16;99952.94;;;-2.05;93.75
57038;BME280;59942;49.304;8.256;2024-01-16T02:04:45;99961.41;;;-1.98;93.30
57038;BME280;59942;49.304;8.256;2024-01-16T02:07:13;99957.19;;;-1.87;93.21
57038;BME280;59942;49.304;8.256;2024-01-16T02:09:44;99954.66;;;-1.92;93.30
57038;BME280;59942;49.304;8.256;2024-01-16T02:12:10;99956.34;;;-1.81;93.47
57038;BME280;59942;49.304;8.256;2024-01-16T02:14:37;99943.66;;;-1.83;92.72
57038;BME280;59942;49.304;8.256;2024-01-16T02:17:04;99945.34;;;-1.79;92.86
57038;BME280;59942;49.304;8.256;2024-01-16T02:19:30;99946.19;;;-1.73;93.03
57038;BME280;59942;49.304;8.256;2024-01-16T02:21:59;99955.53;;;-1.82;93.37
57038;BME280;59942;49.304;8.256;2024-01-16T02:24:27;99929.25;;;-1.82;92.60
57038;BME280;59942;49.304;8.256;2024-01-16T02:26:54;99948.72;;;-1.72;92.11
57038;BME280;59942;49.304;8.256;2024-01-16T02:29:23;99948.72;;;-1.73;92.75
57038;BME280;59942;49.304;8.256;2024-01-16T02:31:49;99942.81;;;-1.66;92.34
57038;BME280;59942;49.304;8.256;2024-01-16T02:34:16;99943.66;;;-1.77;92.85
57038;BME280;59942;49.304;8.256;2024-01-16T02:36:42;99943.69;;;-1.69;91.81
57038;BME280;59942;49.304;8.256;2024-01-16T02:39:09;99941.97;;;-1.68;92.00
57038;BME280;59942;49.304;8.256;2024-01-16T02:41:36;99932.63;;;-1.71;91.71
57038;BME280;59942;49.304;8.256;2024-01-16T02:44:07;99927.56;;;-1.69;92.14
57038;BME280;59942;49.304;8.256;2024-01-16T02:46:34;99932.66;;;-1.82;92.63
57038;BME280;59942;49.304;8.256;2024-01-16T02:49:05;99937.72;;;-1.80;92.82
57038;BME280;59942;49.304;8.256;2024-01-16T02:51:32;99938.56;;;-1.83;92.63
57038;BME280;59942;49.304;8.256;2024-01-16T02:54:05;99939.41;;;-1.87;92.89
57038;BME280;59942;49.304;8.256;2024-01-16T02:56:32;99936.03;;;-1.89;92.49
57038;BME280;59942;49.304;8.256;2024-01-16T02:58:59;99950.41;;;-1.88;92.79
57038;BME280;59942;49.304;8.256;2024-01-16T03:01:25;99947.03;;;-1.84;92.64
57038;BME280;59942;49.304;8.256;2024-01-16T03:03:54;99938.56;;;-1.90;92.45
57038;BME280;59942;49.304;8.256;2024-01-16T03:06:24;99941.94;;;-1.85;92.53
57038;BME280;59942;49.304;8.256;2024-01-16T03:08:51;99940.25;;;-1.89;92.28
57038;BME280;59942;49.304;8.256;2024-01-16T03:11:18;99944.50;;;-1.76;91.84
57038;BME280;59942;49.304;8.256;2024-01-16T03:13:45;99932.66;;;-1.62;91.07
57038;BME280;59942;49.304;8.256;2024-01-16T03:16:14;99942.81;;;-1.49;89.87
57038;BME280;59942;49.304;8.256;2024-01-16T03:18:40;99941.97;;;-1.58;89.46
57038;BME280;59942;49.304;8.256;2024-01-16T03:21:10;99949.59;;;-1.64;90.35
57038;BME280;59942;49.304;8.256;2024-01-16T03:23:37;99942.81;;;-1.66;89.99
57038;BME280;59942;49.304;8.256;2024-01-16T03:26:03;99947.88;;;-1.68;90.30
57038;BME280;59942;49.304;8.256;2024-01-16T03:28:33;99931.78;;;-1.65;89.18
57038;BME280;59942;49.304;8.256;2024-01-16T03:30:59;99891.13;;;-1.99;89.25
57038;BME280;59942;49.304;8.256;2024-01-16T03:33:31;99936.91;;;-1.78;90.08
57038;BME280;59942;49.304;8.256;2024-01-16T03:36:00;99925.00;;;-1.68;89.58
57038;BME280;59942;49.304;8.256;2024-01-16T03:38:29;99905.53;;;-1.64;89.28
57038;BME280;59942;49.304;8.256;2024-01-16T03:40:55;99918.25;;;-1.69;89.12
57038;BME280;59942;49.304;8.256;2024-01-16T03:43:22;99933.50;;;-1.61;89.23
57038;BME280;59942;49.304;8.256;2024-01-16T03:45:48;99932.63;;;-1.69;88.85
57038;BME280;59942;49.304;8.256;2024-01-16T03:48:19;99891.09;;;-2.02;88.96
57038;BME280;59942;49.304;8.256;2024-01-16T03:50:46;99942.81;;;-1.77;89.02
57038;BME280;59942;49.304;8.256;2024-01-16T03:53:14;99934.31;;;-1.90;90.27
57038;BME280;59942;49.304;8.256;2024-01-16T03:55:42;99943.63;;;-2.01;90.57
57038;BME280;59942;49.304;8.256;2024-01-16T03:58:09;99947.75;;;-2.34;92.15
57038;BME280;59942;49.304;8.256;2024-01-16T04:00:41;99945.13;;;-2.59;94.06
57038;BME280;59942;49.304;8.256;2024-01-16T04:03:10;99940.06;;;-2.64;94.18
57038;BME280;59942;49.304;8.256;2024-01-16T04:05:39;99934.97;;;-2.68;94.78
57038;BME280;59942;49.304;8.256;2024-01-16T04:08:06;99946.78;;;-2.70;95.84
57038;BME280;59942;49.304;8.256;2024-01-16T04:10:33;99951.84;;;-2.70;95.04
57038;BME280;59942;49.304;8.256;2024-01-16T04:13:03;99945.13;;;-2.67;95.05
57038;BME280;59942;49.304;8.256;2024-01-16T04:15:32;99956.06;;;-2.80;96.11
57038;BME280;59942;49.304;8.256;2024-01-16T04:17:59;99945.00;;;-2.90;96.94
57038;BME280;59942;49.304;8.256;2024-01-16T04:20:26;99947.56;;;-2.84;96.31
57038;BME280;59942;49.304;8.256;2024-01-16T04:22:52;99948.41;;;-2.83;96.38
57038;BME280;59942;49.304;8.256;2024-01-16T04:25:21;99950.97;;;-2.82;96.72
57038;BME280;59942;49.304;8.256;2024-01-16T04:27:47;99951.84;;;-2.73;95.99
57038;BME280;59942;49.304;8.256;2024-01-16T04:30:14;99939.03;;;-3.01;97.02
57038;BME280;59942;49.304;8.256;2024-01-16T04:32:43;99945.81;;;-2.95;97.33
57038;BME280;59942;49.304;8.256;2024-01-16T04:35:09;99944.19;;;-2.89;96.90
57038;BME280;59942;49.304;8.256;2024-01-16T04:37:37;99949.28;;;-2.84;96.23
57038;BME280;59942;49.304;8.256;2024-01-16T04:40:04;99946.72;;;-2.86;96.48
57038;BME280;59942;49.304;8.256;2024-01-16T04:42:32;99941.66;;;-2.81;96.47
57038;BME280;59942;49.304;8.256;2024-01-16T04:45:00;99944.19;;;-2.87;96.24
57038;BME280;59942;49.304;8.256;2024-01-16T04:47:29;99937.41;;;-2.87;96.34
57038;BME280;59942;49.304;8.256;2024-01-16T04:49:55;99940.78;;;-2.89;96.57
57038;BME280;59942;49.304;8.256;2024-01-16T04:52:22;99932.31;;;-2.93;98.06
57038;BME280;59942;49.304;8.256;2024-01-16T04:54:48;99924.66;;;-2.98;97.36
57038;BME280;59942;49.304;8.256;2024-01-16T04:57:17;99927.25;;;-2.93;98.04
57038;BME280;59942;49.304;8.256;2024-01-16T04:59:44;99926.44;;;-2.81;96.76
57038;BME280;59942;49.304;8.256;2024-01-16T05:02:10;99919.66;;;-2.82;95.79
57038;BME280;59942;49.304;8.256;2024-01-16T05:04:37;99919.69;;;-2.79;96.24
57038;BME280;59942;49.304;8.256;2024-01-16T05:07:08;99912.94;;;-2.75;96.72
57038;BME280;59942;49.304;8.256;2024-01-16T05:09:35;99913.78;;;-2.69;96.27
57038;BME280;59942;49.304;8.256;2024-01-16T05:12:02;99907.00;;;-2.77;95.87
57038;BME280;59942;49.304;8.256;2024-01-16T05:14:28;99905.34;;;-2.69;96.47
57038;BME280;59942;49.304;8.256;2024-01-16T05:16:55;99900.28;;;-2.69;96.22
57038;BME280;59942;49.304;8.256;2024-01-16T05:19:21;99896.00;;;-2.76;96.38
57038;BME280;59942;49.304;8.256;2024-01-16T05:21:48;99896.00;;;-2.81;97.07
57038;BME280;59942;49.304;8.256;2024-01-16T05:24:15;99885.84;;;-2.83;96.37
57038;BME280;59942;49.304;8.256;2024-01-16T05:26:43;99882.41;;;-2.89;97.14
57038;BME280;59942;49.304;8.256;2024-01-16T05:29:12;99886.66;;;-2.90;97.39
57038;BME280;59942;49.304;8.256;2024-01-16T05:31:40;99881.56;;;-2.94;98.20
57038;BME280;59942;49.304;8.256;2024-01-16T05:34:11;99876.50;;;-2.90;97.83
57038;BME280;59942;49.304;8.256;2024-01-16T05:36:42;99867.22;;;-2.88;97.72
57038;BME280;59942;49.304;8.256;2024-01-16T05:39:10;99879.06;;;-2.79;97.64
57038;BME280;59942;49.304;8.256;2024-01-16T05:41:36;99881.63;;;-2.79;96.27
57038;BME280;59942;49.304;8.256;2024-01-16T05:44:07;99877.34;;;-2.92;97.63
57038;BME280;59942;49.304;8.256;2024-01-16T05:46:36;99868.91;;;-2.91;97.34
57038;BME280;59942;49.304;8.256;2024-01-16T05:49:03;99876.50;;;-2.91;97.03
57038;BME280;59942;49.304;8.256;2024-01-16T05:51:30;99879.03;;;-2.96;96.82
57038;BME280;59942;49.304;8.256;2024-01-16T05:54:00;99873.09;;;-2.92;96.80
57038;BME280;59942;49.304;8.256;2024-01-16T05:56:26;99855.31;;;-3.03;97.61
57038;BME280;59942;49.304;8.256;2024-01-16T05:58:53;99870.56;;;-2.92;97.80
57038;BME280;59942;49.304;8.256;2024-01-16T06:01:22;99861.19;;;-3.10;97.92
57038;BME280;59942;49.304;8.256;2024-01-16T06:03:49;99867.97;;;-3.09;98.67
57038;BME280;59942;49.304;8.256;2024-01-16T06:06:20;99857.75;;;-3.20;98.81
57038;BME280;59942;49.304;8.256;2024-01-16T06:08:47;99878.94;;;-3.13;98.66
57038;BME280;59942;49.304;8.256;2024-01-16T06:11:16;99881.47;;;-3.15;98.32
57038;BME280;59942;49.304;8.256;2024-01-16T06:13:46;99887.38;;;-3.12;98.63
57038;BME280;59942;49.304;8.256;2024-01-16T06:16:13;99882.31;;;-3.12;97.99
57038;BME280;59942;49.304;8.256;2024-01-16T06:18:41;99885.69;;;-3.14;98.36
57038;BME280;59942;49.304;8.256;2024-01-16T06:21:08;99888.22;;;-3.12;98.97
57038;BME280;59942;49.304;8.256;2024-01-16T06:23:37;99878.06;;;-3.18;97.66
57038;BME280;59942;49.304;8.256;2024-01-16T06:26:08;99841.59;;;-3.42;98.71
57038;BME280;59942;49.304;8.256;2024-01-16T06:28:34;99860.28;;;-3.21;97.68
57038;BME280;59942;49.304;8.256;2024-01-16T06:31:00;99859.47;;;-3.23;98.69
57038;BME280;59942;49.304;8.256;2024-01-16T06:33:27;99865.38;;;-3.18;98.72
57038;BME280;59942;49.304;8.256;2024-01-16T06:35:57;99863.72;;;-3.11;98.42
57038;BME280;59942;49.304;8.256;2024-01-16T06:38:24;99863.72;;;-3.16;98.14
57038;BME280;59942;49.304;8.256;2024-01-16T06:40:50;99858.56;;;-3.27;98.59
57038;BME280;59942;49.304;8.256;2024-01-16T06:43:18;99868.69;;;-3.33;99.02
57038;BME280;59942;49.304;8.256;2024-01-16T06:45:44;99860.13;;;-3.54;100.00
57038;BME280;59942;49.304;8.256;2024-01-16T06:48:11;99850.72;;;-3.67;100.00
57038;BME280;59942;49.304;8.256;2024-01-16T06:50:40;99865.91;;;-3.67;100.00
57038;BME280;59942;49.304;8.256;2024-01-16T06:53:09;99865.13;;;-3.60;100.00
57038;BME280;59942;49.304;8.256;2024-01-16T06:55:44;99855.06;;;-3.54;100.00
57038;BME280;59942;49.304;8.256;2024-01-16T06:58:11;99853.38;;;-3.49;99.87
57038;BME280;59942;49.304;8.256;2024-01-16T07:00:37;99858.38;;;-3.61;100.00
57038;BME280;59942;49.304;8.256;2024-01-16T07:03:04;99862.69;;;-3.49;100.00
57038;BME280;59942;49.304;8.256;2024-01-16T07:05:33;99860.13;;;-3.51;100.00
57038;BME280;59942;49.304;8.256;2024-01-16T07:08:02;99873.59;;;-3.59;100.00
57038;BME280;59942;49.304;8.256;2024-01-16T07:10:29;99869.31;;;-3.68;100.00
57038;BME280;59942;49.304;8.256;2024-01-16T07:12:55;99862.50;;;-3.74;100.00
57038;BME280;59942;49.304;8.256;2024-01-16T07:15:27;99865.03;;;-3.75;100.00
57038;BME280;59942;49.304;8.256;2024-01-16T07:17:53;99857.38;;;-3.80;100.00
57038;BME280;59942;49.304;8.256;2024-01-16T07:20:20;99868.44;;;-3.70;100.00
57038;BME280;59942;49.304;8.256;2024-01-16T07:22:49;99866.66;;;-3.84;100.00
57038;BME280;59942;49.304;8.256;2024-01-16T07:25:15;99870.88;;;-3.84;100.00
57038;BME280;59942;49.304;8.256;2024-01-16T07:27:42;99875.94;;;-3.86;100.00
57038;BME280;59942;49.304;8.256;2024-01-16T07:30:09;99873.44;;;-3.79;100.00
57038;BME280;59942;49.304;8.256;2024-01-16T07:32:36;99873.47;;;-3.78;100.00
57038;BME280;59942;49.304;8.256;2024-01-16T07:35:05;99875.94;;;-3.86;100.00
57038;BME280;59942;49.304;8.256;2024-01-16T07:37:32;99868.25;;;-3.95;100.00
57038;BME280;59942;49.304;8.256;2024-01-16T07:40:03;99876.75;;;-3.90;100.00
57038;BME280;59942;49.304;8.256;2024-01-16T07:42:32;99843.84;;;-3.88;100.00
57038;BME280;59942;49.304;8.256;2024-01-16T07:45:03;99864.13;;;-3.84;100.00
57038;BME280;59942;49.304;8.256;2024-01-16T07:47:31;99873.59;;;-3.61;100.00
57038;BME280;59942;49.304;8.256;2024-01-16T07:49:59;99870.31;;;-3.43;100.00
57038;BME280;59942;49.304;8.256;2024-01-16T07:52:27;99870.44;;;-3.20;100.00
57038;BME280;59942;49.304;8.256;2024-01-16T07:54:56;99877.19;;;-3.23;100.00
57038;BME280;59942;49.304;8.256;2024-01-16T07:57:23;99883.06;;;-3.34;100.00
57038;BME280;59942;49.304;8.256;2024-01-16T07:59:50;99885.53;;;-3.38;100.00
57038;BME280;59942;49.304;8.256;2024-01-16T08:02:18;99884.03;;;-3.08;100.00
57038;BME280;59942;49.304;8.256;2024-01-16T08:04:49;99890.75;;;-3.12;100.00
57038;BME280;59942;49.304;8.256;2024-01-16T08:07:15;99895.69;;;-3.38;100.00
57038;BME280;59942;49.304;8.256;2024-01-16T08:09:42;99893.25;;;-3.20;100.00
57038;BME280;59942;49.304;8.256;2024-01-16T08:12:09;99889.81;;;-3.33;100.00
57038;BME280;59942;49.304;8.256;2024-01-16T08:14:35;99887.38;;;-3.17;100.00
57038;BME280;59942;49.304;8.256;2024-01-16T08:17:04;99884.91;;;-3.03;100.00
57038;BME280;59942;49.304;8.256;2024-01-16T08:19:31;99879.88;;;-2.89;100.00
57038;BME280;59942;49.304;8.256;2024-01-16T08:22:00;99887.56;;;-2.77;100.00
57038;BME280;59942;49.304;8.256;2024-01-16T08:24:31;99884.13;;;-2.84;100.00
57038;BME280;59942;49.304;8.256;2024-01-16T08:27:00;99889.25;;;-2.76;100.00
57038;BME280;59942;49.304;8.256;2024-01-16T08:29:27;99890.94;;;-2.78;100.00
57038;BME280;59942;49.304;8.256;2024-01-16T08:31:55;99889.28;;;-2.65;100.00
57038;BME280;59942;49.304;8.256;2024-01-16T08:34:22;99888.38;;;-2.83;100.00
57038;BME280;59942;49.304;8.256;2024-01-16T08:36:51;99894.38;;;-2.60;100.00
57038;BME280;59942;49.304;8.256;2024-01-16T08:39:23;99901.91;;;-2.79;100.00
57038;BME280;59942;49.304;8.256;2024-01-16T08:41:56;99904.44;;;-2.81;100.00
57038;BME280;59942;49.304;8.256;2024-01-16T08:44:25;99912.97;;;-2.60;100.00
57038;BME280;59942;49.304;8.256;2024-01-16T08:46:54;99906.16;;;-2.78;100.00
57038;BME280;59942;49.304;8.256;2024-01-16T08:49:21;99911.31;;;-2.59;100.00
57038;BME280;59942;49.304;8.256;2024-01-16T08:51:51;99913.78;;;-2.69;100.00
57038;BME280;59942;49.304;8.256;2024-01-16T08:54:18;99924.00;;;-2.52;100.00
57038;BME280;59942;49.304;8.256;2024-01-16T08:56:49;99916.38;;;-2.61;100.00
57038;BME280;59942;49.304;8.256;2024-01-16T08:59:16;99922.31;;;-2.54;100.00
57038;BME280;59942;49.304;8.256;2024-01-16T09:01:44;99924.03;;;-2.50;100.00
57038;BME280;59942;49.304;8.256;2024-01-16T09:04:11;99924.00;;;-2.52;98.56
57038;BME280;59942;49.304;8.256;2024-01-16T09:06:40;99929.16;;;-2.41;98.48
57038;BME280;59942;49.304;8.256;2024-01-16T09:09:06;99907.06;;;-2.67;97.69
57038;BME280;59942;49.304;8.256;2024-01-16T09:11:33;99927.44;;;-2.43;97.82
57038;BME280;59942;49.304;8.256;2024-01-16T09:14:02;99937.59;;;-2.36;99.10
57038;BME280;59942;49.304;8.256;2024-01-16T09:16:32;99938.47;;;-2.34;96.92
57038;BME280;59942;49.304;8.256;2024-01-16T09:18:59;99930.81;;;-2.48;97.22
57038;BME280;59942;49.304;8.256;2024-01-16T09:21:28;99945.28;;;-2.19;97.64
57038;BME280;59942;49.304;8.256;2024-01-16T09:23:55;99939.31;;;-2.29;96.37
57038;BME280;59942;49.304;8.256;2024-01-16T09:26:24;99946.97;;;-2.21;97.17
57038;BME280;59942;49.304;8.256;2024-01-16T09:28:50;99946.16;;;-2.11;96.29
57038;BME280;59942;49.304;8.256;2024-01-16T09:31:19;99947.81;;;-2.17;96.40
57038;BME280;59942;49.304;8.256;2024-01-16T09:33:45;99957.16;;;-2.08;95.44
57038;BME280;59942;49.304;8.256;2024-01-16T09:36:12;99943.63;;;-2.11;95.12
57038;BME280;59942;49.304;8.256;2024-01-16T09:38:39;99947.00;;;-2.15;94.90
57038;BME280;59942;49.304;8.256;2024-01-16T09:41:05;99944.44;;;-2.13;95.38
57038;BME280;59942;49.304;8.256;2024-01-16T09:43:33;99935.13;;;-2.08;95.13
57038;BME280;59942;49.304;8.256;2024-01-16T09:46:01;99935.94;;;-2.21;95.56
57038;BME280;59942;49.304;8.256;2024-01-16T09:48:30;99930.09;;;-1.96;95.66
57038;BME280;59942;49.304;8.256;2024-01-16T09:51:01;99891.09;;;-2.08;95.03
57038;BME280;59942;49.304;8.256;2024-01-16T09:53:27;99917.41;;;-1.74;95.48
57038;BME280;59942;49.304;8.256;2024-01-16T09:56:02;99913.16;;;-1.66;93.18
57038;BME280;59942;49.304;8.256;2024-01-16T09:58:34;99908.91;;;-1.45;92.21
57038;BME280;59942;49.304;8.256;2024-01-16T10:01:02;99902.97;;;-1.41;92.56
57038;BME280;59942;49.304;8.256;2024-01-16T10:03:30;99907.19;;;-1.26;92.88
57038;BME280;59942;49.304;8.256;2024-01-16T10:05:57;99896.16;;;-1.20;90.99
57038;BME280;59942;49.304;8.256;2024-01-16T10:08:29;99901.28;;;-1.30;91.41
57038;BME280;59942;49.304;8.256;2024-01-16T10:10:56;99891.94;;;-1.35;90.34
57038;BME280;59942;49.304;8.256;2024-01-16T10:13:22;99919.09;;;-1.50;90.23
57038;BME280;59942;49.304;8.256;2024-01-16T10:15:50;99907.22;;;-1.37;90.45
57038;BME280;59942;49.304;8.256;2024-01-16T10:18:22;99928.38;;;-1.30;91.43
57038;BME280;59942;49.304;8.256;2024-01-16T10:20:53;99921.59;;;-1.25;91.87
57038;BME280;59942;49.304;8.256;2024-01-16T10:23:26;99919.88;;;-1.11;93.00
57038;BME280;59942;49.304;8.256;2024-01-16T10:26:12;99913.06;;;-1.06;91.19
57038;BME280;59942;49.304;8.256;2024-01-16T10:28:43;99911.41;;;-1.10;89.21
57038;BME280;59942;49.304;8.256;2024-01-16T10:31:11;99910.53;;;-1.10;89.68
57038;BME280;59942;49.304;8.256;2024-01-16T10:33:40;99912.19;;;-0.88;93.79
57038;BME280;59942;49.304;8.256;2024-01-16T10:38:44;99911.13;;;-0.40;93.44
57038;BME280;59942;49.304;8.256;2024-01-16T10:41:15;99895.06;;;-0.50;89.75
57038;BME280;59942;49.304;8.256;2024-01-16T10:43:46;99899.84;;;-0.02;91.69
57038;BME280;59942;49.304;8.256;2024-01-16T10:46:13;99901.81;;;-0.44;86.81
57038;BME280;59942;49.304;8.256;2024-01-16T10:48:43;99899.25;;;-0.41;85.47
57038;BME280;59942;49.304;8.256;2024-01-16T10:51:19;99892.22;;;-0.04;90.92
57038;BME280;59942;49.304;8.256;2024-01-16T10:53:50;99886.13;;;0.14;88.18
57038;BME280;59942;49.304;8.256;2024-01-16T10:56:21;99877.56;;;0.22;84.40
57038;BME280;59942;49.304;8.256;2024-01-16T10:58:57;99875.69;;;0.45;84.51
57038;BME280;59942;49.304;8.256;2024-01-16T11:01:28;99868.91;;;0.43;84.52
57038;BME280;59942;49.304;8.256;2024-01-16T11:03:56;99863.66;;;0.60;91.04
57038;BME280;59942;49.304;8.256;2024-01-16T11:06:26;99863.66;;;0.60;90.06
57038;BME280;59942;49.304;8.256;2024-01-16T11:08:54;99864.72;;;0.36;85.11
57038;BME280;59942;49.304;8.256;2024-01-16T11:11:23;99859.47;;;0.51;86.02
57038;BME280;59942;49.304;8.256;2024-01-16T11:13:52;99863.13;;;0.25;83.49
57038;BME280;59942;49.304;8.256;2024-01-16T11:16:22;99859.81;;;0.12;82.39
57038;BME280;59942;49.304;8.256;2024-01-16T11:18:52;99877.50;;;0.32;84.25
57038;BME280;59942;49.304;8.256;2024-01-16T11:21:19;99870.88;;;0.10;82.51
57038;BME280;59942;49.304;8.256;2024-01-16T11:23:48;99860.50;;;0.30;84.46
57038;BME280;59942;49.304;8.256;2024-01-16T11:26:25;99864.41;;;0.68;87.27
57038;BME280;59942;49.304;8.256;2024-01-16T11:28:57;99840.00;;;0.42;84.70
57038;BME280;59942;49.304;8.256;2024-01-16T11:31:34;99841.25;;;0.85;86.69
57038;BME280;59942;49.304;8.256;2024-01-16T11:34:04;99836.94;;;0.92;89.57
57038;BME280;59942;49.304;8.256;2024-01-16T11:36:49;99842.94;;;0.86;83.80
57038;BME280;59942;49.304;8.256;2024-01-16T11:39:19;99834.06;;;0.40;81.19
57038;BME280;59942;49.304;8.256;2024-01-16T11:41:56;99848.00;;;0.89;91.29
57038;BME280;59942;49.304;8.256;2024-01-16T11:44:40;99834.63;;;0.68;81.38
57038;BME280;59942;49.304;8.256;2024-01-16T11:47:08;99829.22;;;0.96;84.98
57038;BME280;59942;49.304;8.256;2024-01-16T11:49:37;99831.66;;;1.07;86.19
57038;BME280;59942;49.304;8.256;2024-01-16T11:52:06;99821.47;;;1.06;77.94
57038;BME280;59942;49.304;8.256;2024-01-16T11:54:40;99818.09;;;1.64;84.94
57038;BME280;59942;49.304;8.256;2024-01-16T11:59:57;99817.50;;;1.47;77.33
57038;BME280;59942;49.304;8.256;2024-01-16T12:05:13;99791.22;;;1.37;77.60
57038;BME280;59942;49.304;8.256;2024-01-16T12:10:21;99800.28;;;1.60;76.81
57038;BME280;59942;49.304;8.256;2024-01-16T12:12:52;99796.66;;;1.73;75.68
57038;BME280;59942;49.304;8.256;2024-01-16T12:15:30;99783.03;;;1.72;77.90
57038;BME280;59942;49.304;8.256;2024-01-16T12:17:59;99798.81;;;1.98;73.68
57038;BME280;59942;49.304;8.256;2024-01-16T12:20:31;99788.94;;;2.28;73.48
57038;BME280;59942;49.304;8.256;2024-01-16T12:23:04;99790.59;;;2.30;69.72
57038;BME280;59942;49.304;8.256;2024-01-16T12:25:36;99788.28;;;2.16;77.30
57038;BME280;59942;49.304;8.256;2024-01-16T12:28:25;99781.59;;;2.56;75.51
57038;BME280;59942;49.304;8.256;2024-01-16T12:30:56;99772.00;;;2.66;69.25
57038;BME280;59942;49.304;8.256;2024-01-16T12:33:23;99778.84;;;2.65;68.02
57038;BME280;59942;49.304;8.256;2024-01-16T12:35:50;99780.69;;;2.57;67.99
57038;BME280;59942;49.304;8.256;2024-01-16T12:38:27;99772.91;;;2.65;67.83
57038;BME280;59942;49.304;8.256;2024-01-16T12:40:53;99769.03;;;2.43;67.49
57038;BME280;59942;49.304;8.256;2024-01-16T12:43:22;99759.16;;;2.69;70.33
57038;BME280;59942;49.304;8.256;2024-01-16T12:45:56;99754.22;;;2.59;68.52
57038;BME280;59942;49.304;8.256;2024-01-16T12:48:26;99721.84;;;2.57;68.62
57038;BME280;59942;49.304;8.256;2024-01-16T12:51:00;99756.41;;;2.78;68.32
57038;BME280;59942;49.304;8.256;2024-01-16T12:53:29;99750.34;;;2.82;73.50
57038;BME280;59942;49.304;8.256;2024-01-16T12:56:01;99712.59;;;2.50;67.66
57038;BME280;59942;49.304;8.256;2024-01-16T12:58:35;99736.00;;;2.31;65.65
57038;BME280;59942;49.304;8.256;2024-01-16T13:04:04;99734.38;;;2.27;68.97
57038;BME280;59942;49.304;8.256;2024-01-16T13:06:30;99730.56;;;2.47;68.33
57038;BME280;59942;49.304;8.256;2024-01-16T13:09:10;99734.06;;;2.86;69.65
57038;BME280;59942;49.304;8.256;2024-01-16T13:12:02;99728.41;;;2.70;64.84
57038;BME280;59942;49.304;8.256;2024-01-16T13:14:28;99724.69;;;2.85;67.71
57038;BME280;59942;49.304;8.256;2024-01-16T13:16:59;99720.66;;;2.73;63.34
57038;BME280;59942;49.304;8.256;2024-01-16T13:19:27;99708.25;;;2.55;63.89
57038;BME280;59942;49.304;8.256;2024-01-16T13:21:56;99711.69;;;2.93;67.04